Caistor, United Kingdom
Current Conditions -  °F | °C
As of 4:50 PM on Saturday 22 Nov 2014 (Local Time) from EGNJ Reporting Station
Haze Haze  
Wind Chill: 55°   Ceiling: 2500
Heat Index: 55°   Visibility: 2.5mi
Dew Point: 54°   Wind: 8mph
Humidity: 94%   Direction: 180°S
Pressure: 29.88"   Gusts: NA
Location:  53.5°N, 0.32°W
Report Text: EGNJ 221650Z 18007KT 4000 BR SCT016 BKN025 13/12 Q1012
Loading
Personal Weather Stations






























Interactive Weather Map New forecast layout! Learn more

10-Day Weather Forecast

Advertisements
Track Severe Weather on mobile